createdAt,value
2018-08-24T00:02:17.176Z,85.64
2018-08-24T00:04:50.338Z,87.64
2018-08-24T00:07:23.953Z,87.77
2018-08-24T00:09:57.352Z,88.12
2018-08-24T00:12:32.075Z,88.09
2018-08-24T00:15:04.920Z,87.81
2018-08-24T00:17:38.178Z,87.43
2018-08-24T00:20:12.416Z,88.30
2018-08-24T00:22:42.058Z,89.40
2018-08-24T00:25:16.475Z,88.58
2018-08-24T00:27:49.355Z,89.29
2018-08-24T00:30:22.732Z,89.90
2018-08-24T00:32:57.084Z,88.86
2018-08-24T00:35:33.479Z,90.10
2018-08-24T00:40:45.696Z,89.92
2018-08-24T00:45:58.535Z,89.32
2018-08-24T00:48:31.827Z,90.59
2018-08-24T00:51:05.694Z,90.70
2018-08-24T00:53:39.804Z,90.40
2018-08-24T00:56:14.961Z,90.47
2018-08-24T00:58:48.152Z,91.01
2018-08-24T01:04:03.670Z,90.41
2018-08-24T01:06:37.003Z,90.43
2018-08-24T01:09:12.838Z,90.52
2018-08-24T01:11:46.944Z,90.73
2018-08-24T01:14:20.631Z,90.82
2018-08-24T01:16:56.102Z,90.09
2018-08-24T01:19:29.690Z,90.05
2018-08-24T01:22:02.974Z,89.82
2018-08-24T01:24:37.068Z,89.36
2018-08-24T01:27:11.782Z,90.46
2018-08-24T01:29:44.852Z,90.79
2018-08-24T01:32:18.011Z,89.87
2018-08-24T01:34:52.648Z,90.60
2018-08-24T01:37:26.403Z,90.50
2018-08-24T01:42:38.012Z,91.12
2018-08-24T01:47:47.446Z,91.45
2018-08-24T01:50:20.633Z,93.87
2018-08-24T01:52:56.808Z,94.59
2018-08-24T01:55:31.322Z,96.05
2018-08-24T01:58:04.199Z,94.47
2018-08-24T02:03:15.133Z,92.64
2018-08-24T02:08:25.714Z,93.24
2018-08-24T02:14:15.732Z,94.79
2018-08-24T02:16:49.380Z,96.86
2018-08-24T02:19:22.978Z,97.20
2018-08-24T02:24:58.574Z,97.00
2018-08-24T02:27:32.930Z,98.54
2018-08-24T02:35:19.956Z,97.09
2018-08-24T02:37:52.852Z,96.69
2018-08-24T02:40:26.221Z,96.59
2018-08-24T02:42:59.456Z,95.48
2018-08-24T02:50:45.027Z,94.07
2018-08-24T02:53:18.245Z,93.29
2018-08-24T02:55:53.379Z,93.15
2018-08-24T02:58:25.394Z,93.68
2018-08-24T03:03:37.159Z,92.68
2018-08-24T03:06:09.666Z,92.59
2018-08-24T03:08:43.771Z,92.79
2018-08-24T03:13:53.370Z,92.96
2018-08-24T03:16:26.953Z,93.34
2018-08-24T03:19:00.057Z,93.95
2018-08-24T03:24:10.105Z,94.27
2018-08-24T03:26:43.150Z,94.01
2018-08-24T03:29:16.081Z,94.11
2018-08-24T03:31:49.863Z,93.77
2018-08-24T03:34:23.727Z,93.74
2018-08-24T03:36:57.354Z,93.57
2018-08-24T03:39:30.717Z,93.20
2018-08-24T03:42:04.693Z,93.06
2018-08-24T03:47:15.905Z,91.90
2018-08-24T03:49:51.049Z,91.74
2018-08-24T03:52:25.407Z,91.78
2018-08-24T03:54:57.973Z,91.99
2018-08-24T03:57:32.359Z,92.26
2018-08-24T04:00:06.967Z,91.97
2018-08-24T04:02:41.058Z,91.54
2018-08-24T04:05:14.355Z,92.17
2018-08-24T04:07:47.701Z,92.75
2018-08-24T04:10:20.701Z,92.77
2018-08-24T04:12:50.884Z,93.03
2018-08-24T04:15:24.932Z,92.93
2018-08-24T04:17:59.097Z,92.88
2018-08-24T04:20:31.537Z,92.27
2018-08-24T04:25:41.530Z,92.23
2018-08-24T04:28:14.811Z,92.34
2018-08-24T04:30:47.731Z,92.41
2018-08-24T04:33:20.473Z,92.96
2018-08-24T04:35:54.167Z,93.34
2018-08-24T04:43:42.451Z,92.79
2018-08-24T04:46:11.490Z,92.16
2018-08-24T04:48:46.756Z,91.72
2018-08-24T04:51:20.124Z,91.55
2018-08-24T04:53:55.136Z,91.33
2018-08-24T04:56:28.239Z,90.96
2018-08-24T05:01:41.076Z,90.53
2018-08-24T05:04:14.091Z,90.22
2018-08-24T05:09:24.660Z,88.59
2018-08-24T05:11:58.037Z,88.16
2018-08-24T05:14:30.887Z,88.04
2018-08-24T05:17:06.185Z,88.12
2018-08-24T05:19:39.581Z,86.83
2018-08-24T05:22:12.731Z,86.45
2018-08-24T05:24:46.059Z,85.91
2018-08-24T05:27:21.669Z,85.49
2018-08-24T05:32:30.983Z,84.92
2018-08-24T05:37:41.393Z,83.41
2018-08-24T05:42:54.148Z,82.69
2018-08-24T05:45:28.507Z,82.71
2018-08-24T05:50:40.042Z,81.87
2018-08-24T05:53:16.628Z,80.76
2018-08-24T05:56:02.188Z,80.34
2018-08-24T05:58:46.129Z,79.86
2018-08-24T06:01:27.140Z,80.02
2018-08-24T06:04:10.047Z,80.64
2018-08-24T06:11:06.224Z,80.90
2018-08-24T06:13:41.833Z,82.06
2018-08-24T06:16:15.492Z,82.70
2018-08-24T06:21:29.306Z,85.27
2018-08-24T06:24:02.465Z,85.32
2018-08-24T06:29:11.402Z,88.57
2018-08-24T06:31:46.828Z,90.25
2018-08-24T06:34:19.569Z,90.88
2018-08-24T06:36:55.806Z,91.53
2018-08-24T06:39:29.943Z,92.56
2018-08-24T06:42:02.855Z,91.28
2018-08-24T06:44:35.350Z,91.54
2018-08-24T06:49:48.491Z,89.76
2018-08-24T06:52:21.493Z,89.29
2018-08-24T06:54:54.273Z,89.34
2018-08-24T07:00:06.045Z,87.16
2018-08-24T07:02:40.959Z,87.88
2018-08-24T07:05:13.007Z,86.34
2018-08-24T07:10:22.776Z,85.22
2018-08-24T07:12:57.671Z,84.72
2018-08-24T07:15:31.892Z,85.53
2018-08-24T07:18:06.039Z,85.29
2018-08-24T07:20:38.363Z,85.33
2018-08-24T07:23:16.184Z,86.37
2018-08-24T07:25:54.951Z,86.38
2018-08-24T07:28:29.139Z,84.78
2018-08-24T07:33:40.140Z,84.14
2018-08-24T07:36:16.398Z,84.11
2018-08-24T07:38:49.627Z,84.35
2018-08-24T07:41:24.464Z,81.99
2018-08-24T07:43:59.335Z,80.64
2018-08-24T07:46:32.869Z,80.73
2018-08-24T07:49:08.037Z,81.54
2018-08-24T07:51:43.125Z,80.71
2018-08-24T07:54:16.090Z,80.83
2018-08-24T07:56:51.975Z,80.88
2018-08-24T07:59:26.839Z,80.65
2018-08-24T08:07:13.755Z,75.68
2018-08-24T08:09:51.798Z,76.25
2018-08-24T08:12:25.109Z,74.53
2018-08-24T08:14:58.334Z,71.98
2018-08-24T08:17:32.691Z,71.31
2018-08-24T08:22:42.717Z,72.41
2018-08-24T08:25:16.771Z,71.00
2018-08-24T08:30:28.504Z,71.17
2018-08-24T08:33:05.130Z,72.22
2018-08-24T08:35:38.152Z,70.62
2018-08-24T08:38:11.516Z,72.06
2018-08-24T08:40:44.863Z,69.13
2018-08-24T08:43:18.408Z,69.38
2018-08-24T08:45:51.698Z,69.58
2018-08-24T08:48:25.635Z,73.61
2018-08-24T08:53:36.251Z,81.78
2018-08-24T08:58:45.825Z,83.31
2018-08-24T09:01:19.436Z,85.97
2018-08-24T09:03:52.648Z,86.78
2018-08-24T09:06:26.260Z,90.56
2018-08-24T09:08:59.307Z,91.49
2018-08-24T09:11:32.495Z,95.16
2018-08-24T09:14:07.115Z,98.79
2018-08-24T09:16:40.871Z,99.28
2018-08-24T09:19:19.997Z,100.00
2018-08-24T09:24:44.119Z,100.00
2018-08-24T09:27:34.454Z,100.00
2018-08-24T09:30:07.900Z,100.00
2018-08-24T09:37:56.204Z,100.00
2018-08-24T09:40:30.999Z,100.00
2018-08-24T09:43:05.569Z,100.00
2018-08-24T09:48:24.264Z,100.00
2018-08-24T09:50:57.560Z,100.00
2018-08-24T09:56:10.466Z,100.00
2018-08-24T10:01:23.670Z,100.00
2018-08-24T10:03:56.914Z,100.00
2018-08-24T10:09:28.823Z,100.00
2018-08-24T10:12:01.610Z,100.00
2018-08-24T10:14:35.207Z,100.00
2018-08-24T10:17:08.814Z,100.00
2018-08-24T10:19:41.978Z,100.00
2018-08-24T10:22:15.212Z,100.00
2018-08-24T10:27:25.107Z,100.00
2018-08-24T10:32:46.161Z,100.00
2018-08-24T10:35:20.170Z,100.00
2018-08-24T10:37:53.646Z,100.00
2018-08-24T10:40:27.999Z,100.00
2018-08-24T10:48:18.283Z,100.00
2018-08-24T10:50:52.618Z,100.00
2018-08-24T10:53:27.375Z,100.00
2018-08-24T10:56:03.930Z,100.00
2018-08-24T10:58:38.452Z,100.00
2018-08-24T11:01:11.957Z,100.00
2018-08-24T11:06:24.922Z,100.00
2018-08-24T11:09:00.329Z,100.00
2018-08-24T11:11:34.160Z,100.00
2018-08-24T11:14:07.229Z,100.00
2018-08-24T11:16:48.085Z,100.00
2018-08-24T11:19:22.602Z,100.00
2018-08-24T11:21:56.304Z,100.00
2018-08-24T11:24:29.700Z,100.00
2018-08-24T11:27:04.965Z,100.00
2018-08-24T11:32:14.990Z,100.00
2018-08-24T11:34:48.121Z,100.00
2018-08-24T11:37:23.873Z,100.00
2018-08-24T11:39:56.999Z,100.00
2018-08-24T11:42:32.189Z,100.00
2018-08-24T11:45:05.522Z,100.00
2018-08-24T11:47:38.424Z,100.00
2018-08-24T11:50:11.432Z,100.00
2018-08-24T11:52:44.519Z,100.00
2018-08-24T11:55:18.692Z,100.00
2018-08-24T12:00:29.836Z,99.61
2018-08-24T12:03:04.309Z,96.19
2018-08-24T12:08:15.706Z,93.92
2018-08-24T12:10:49.080Z,88.35
2018-08-24T12:16:00.030Z,85.92
2018-08-24T12:18:34.536Z,84.57
2018-08-24T12:21:07.775Z,82.63
2018-08-24T12:23:41.657Z,82.83
2018-08-24T12:26:14.648Z,80.98
2018-08-24T12:28:47.732Z,79.77
2018-08-24T12:31:24.511Z,81.10
2018-08-24T12:34:00.250Z,78.56
2018-08-24T12:39:09.937Z,77.29
2018-08-24T12:41:43.870Z,77.88
2018-08-24T12:44:17.563Z,78.99
2018-08-24T12:46:50.637Z,80.23
2018-08-24T12:49:23.911Z,75.73
2018-08-24T12:51:57.431Z,75.25
2018-08-24T12:54:30.239Z,71.93
2018-08-24T12:57:03.639Z,73.17
2018-08-24T12:59:36.665Z,66.98
2018-08-24T13:04:48.614Z,71.87
2018-08-24T13:07:21.611Z,68.70
2018-08-24T13:09:55.661Z,70.47
2018-08-24T13:12:29.651Z,69.64
2018-08-24T13:15:02.788Z,67.65
2018-08-24T13:20:14.194Z,66.32
2018-08-24T13:22:47.971Z,64.65
2018-08-24T13:25:20.457Z,56.73
2018-08-24T13:27:54.158Z,57.65
2018-08-24T13:30:25.802Z,58.47
2018-08-24T13:32:58.730Z,60.10
2018-08-24T13:35:32.035Z,57.34
2018-08-24T13:38:04.756Z,54.54
2018-08-24T13:40:39.829Z,50.03
2018-08-24T13:45:49.249Z,51.96
2018-08-24T13:48:21.905Z,53.49
2018-08-24T13:50:56.327Z,57.47
2018-08-24T13:53:29.892Z,60.54
2018-08-24T13:56:03.544Z,58.86
2018-08-24T13:58:37.088Z,62.89
2018-08-24T14:01:11.472Z,62.38
2018-08-24T14:03:44.584Z,60.96
2018-08-24T14:06:18.261Z,61.54
2018-08-24T14:08:56.295Z,61.69
2018-08-24T14:11:29.134Z,61.07
2018-08-24T14:14:01.701Z,63.88
2018-08-24T14:16:35.972Z,62.64
2018-08-24T14:19:11.760Z,63.27
2018-08-24T14:21:44.482Z,64.90
2018-08-24T14:26:52.785Z,65.90
2018-08-24T14:29:25.433Z,64.61
2018-08-24T14:31:58.933Z,62.96
2018-08-24T14:34:31.909Z,64.78
2018-08-24T14:37:08.386Z,69.83
2018-08-24T14:39:41.398Z,81.98
2018-08-24T14:44:53.207Z,87.22
2018-08-24T14:47:25.844Z,88.73
2018-08-24T14:49:58.833Z,91.99
2018-08-24T14:52:34.111Z,82.62
2018-08-24T14:55:07.185Z,79.56
2018-08-24T14:57:40.872Z,80.47
2018-08-24T15:02:51.292Z,82.62
2018-08-24T15:05:25.331Z,82.58
2018-08-24T15:07:58.056Z,83.21
2018-08-24T15:10:30.837Z,84.96
2018-08-24T15:15:43.060Z,84.96
2018-08-24T15:20:52.831Z,86.15
2018-08-24T15:23:25.385Z,86.84
2018-08-24T15:25:58.694Z,88.35
2018-08-24T15:28:31.718Z,89.79
2018-08-24T15:31:09.475Z,90.35
2018-08-24T15:33:42.416Z,91.46
2018-08-24T15:36:16.917Z,93.26
2018-08-24T15:38:51.214Z,94.95
2018-08-24T15:44:01.094Z,96.15
2018-08-24T15:46:37.450Z,94.79
2018-08-24T15:49:10.182Z,94.24
2018-08-24T15:51:43.086Z,95.36
2018-08-24T15:54:16.245Z,93.92
2018-08-24T15:56:49.366Z,93.51
2018-08-24T15:59:22.729Z,94.67
2018-08-24T16:01:55.629Z,93.58
2018-08-24T16:04:28.576Z,93.76
2018-08-24T16:09:37.790Z,93.66
2018-08-24T16:14:50.138Z,93.48
2018-08-24T16:17:22.975Z,94.30
2018-08-24T16:22:32.188Z,91.76
2018-08-24T16:25:07.244Z,92.65
2018-08-24T16:27:39.574Z,93.26
2018-08-24T16:30:12.401Z,92.73
2018-08-24T16:32:46.933Z,93.03
2018-08-24T16:35:20.529Z,93.22
2018-08-24T16:37:53.333Z,93.60
2018-08-24T16:43:02.209Z,93.93
2018-08-24T16:45:35.061Z,94.16
2018-08-24T16:48:07.890Z,94.48
2018-08-24T16:50:40.998Z,94.54
2018-08-24T16:55:50.346Z,92.48
2018-08-24T17:00:59.414Z,92.80
2018-08-24T17:03:31.641Z,93.52
2018-08-24T17:06:05.128Z,92.95
2018-08-24T17:08:38.016Z,93.54
2018-08-24T17:11:11.069Z,94.15
2018-08-24T17:13:45.304Z,93.87
2018-08-24T17:18:54.741Z,93.53
2018-08-24T17:21:28.066Z,94.61
2018-08-24T17:24:00.726Z,95.50
2018-08-24T17:26:35.097Z,95.69
2018-08-24T17:29:08.384Z,96.81
2018-08-24T17:31:41.713Z,97.47
2018-08-24T17:34:17.227Z,98.79
2018-08-24T17:36:50.853Z,99.57
2018-08-24T17:39:25.451Z,100.00
2018-08-24T17:41:59.918Z,100.00
2018-08-24T17:44:33.006Z,100.00
2018-08-24T17:47:05.811Z,98.50
2018-08-24T17:49:38.630Z,98.70
2018-08-24T17:52:12.232Z,98.53
2018-08-24T17:54:46.306Z,99.02
2018-08-24T17:57:19.637Z,98.98
2018-08-24T17:59:52.546Z,98.09
2018-08-24T18:02:25.566Z,98.04
2018-08-24T18:04:58.744Z,98.10
2018-08-24T18:07:31.762Z,97.82
2018-08-24T18:10:05.841Z,98.05
2018-08-24T18:12:38.897Z,98.13
2018-08-24T18:15:11.724Z,98.38
2018-08-24T18:17:47.643Z,98.21
2018-08-24T18:20:20.254Z,97.71
2018-08-24T18:22:53.201Z,97.58
2018-08-24T18:25:26.333Z,98.30
2018-08-24T18:27:59.658Z,98.19
2018-08-24T18:30:32.635Z,99.01
2018-08-24T18:33:06.414Z,98.97
2018-08-24T18:35:39.352Z,100.00
2018-08-24T18:43:25.166Z,100.00
2018-08-24T18:48:34.258Z,100.00
2018-08-24T18:51:07.880Z,100.00
2018-08-24T18:53:41.083Z,100.00
2018-08-24T18:58:51.470Z,100.00
2018-08-24T19:01:25.880Z,100.00
2018-08-24T19:03:59.926Z,100.00
2018-08-24T19:11:45.611Z,100.00
2018-08-24T19:14:20.835Z,100.00
2018-08-24T19:16:55.447Z,100.00
2018-08-24T19:22:27.552Z,100.00
2018-08-24T19:25:01.995Z,100.00
2018-08-24T19:27:35.084Z,100.00
2018-08-24T19:33:11.856Z,100.00
2018-08-24T19:35:42.653Z,100.00
2018-08-24T19:40:52.046Z,100.00
2018-08-24T19:43:25.648Z,100.00
2018-08-24T19:46:00.374Z,100.00
2018-08-24T19:51:33.044Z,100.00
2018-08-24T19:54:07.212Z,100.00
2018-08-24T19:56:40.668Z,100.00
2018-08-24T20:01:49.864Z,100.00
2018-08-24T20:04:25.136Z,100.00
2018-08-24T20:10:06.937Z,100.00
2018-08-24T20:15:16.787Z,100.00
2018-08-24T20:17:50.336Z,100.00
2018-08-24T20:20:23.812Z,100.00
2018-08-24T20:25:33.055Z,100.00
2018-08-24T20:28:06.852Z,100.00
2018-08-24T20:30:40.400Z,100.00
2018-08-24T20:33:14.903Z,100.00
2018-08-24T20:38:22.591Z,99.93
2018-08-24T20:40:56.408Z,99.59
2018-08-24T20:43:30.672Z,99.82
2018-08-24T20:46:03.682Z,99.32
2018-08-24T20:48:33.688Z,99.60
2018-08-24T20:51:07.373Z,99.99
2018-08-24T20:53:43.138Z,100.00
2018-08-24T20:56:16.777Z,100.00
2018-08-24T21:01:25.786Z,100.00
2018-08-24T21:03:59.805Z,100.00
2018-08-24T21:09:09.538Z,100.00
2018-08-24T21:11:44.811Z,100.00
2018-08-24T21:14:18.648Z,100.00
2018-08-24T21:19:28.102Z,100.00
2018-08-24T21:22:01.563Z,100.00
2018-08-24T21:24:35.722Z,99.36
2018-08-24T21:27:10.458Z,99.61
2018-08-24T21:29:44.287Z,99.49
2018-08-24T21:34:52.968Z,99.57
2018-08-24T21:37:26.049Z,99.30
2018-08-24T21:42:35.390Z,98.98
2018-08-24T21:45:08.975Z,98.95
2018-08-24T21:50:18.441Z,99.32
2018-08-24T21:52:51.554Z,98.46
2018-08-24T21:58:01.483Z,98.07
2018-08-24T22:00:35.173Z,97.97
2018-08-24T22:03:09.750Z,97.48
2018-08-24T22:08:21.312Z,97.64
2018-08-24T22:13:32.048Z,98.61
2018-08-24T22:16:05.117Z,97.79
2018-08-24T22:18:39.089Z,98.44
2018-08-24T22:21:12.063Z,98.52
2018-08-24T22:26:25.274Z,98.89
2018-08-24T22:28:58.942Z,99.55
2018-08-24T22:34:09.808Z,100.00
2018-08-24T22:36:44.449Z,99.35
2018-08-24T22:39:20.124Z,99.30
2018-08-24T22:41:54.751Z,99.18
2018-08-24T22:47:05.681Z,99.99
2018-08-24T22:49:40.547Z,100.00
2018-08-24T22:52:13.366Z,99.57
2018-08-24T22:54:49.858Z,99.50
2018-08-24T22:57:22.895Z,99.33
2018-08-24T22:59:57.403Z,99.20
2018-08-24T23:02:32.616Z,99.39
2018-08-24T23:05:05.547Z,98.58
2018-08-24T23:10:15.357Z,98.62
2018-08-24T23:15:25.482Z,98.18
2018-08-24T23:18:00.643Z,98.79
2018-08-24T23:20:33.695Z,99.10
2018-08-24T23:23:08.173Z,99.33
2018-08-24T23:25:41.093Z,98.46
2018-08-24T23:28:14.879Z,97.53
2018-08-24T23:30:48.342Z,96.36
2018-08-24T23:33:22.430Z,96.56
2018-08-24T23:35:56.932Z,96.24
2018-08-24T23:38:29.552Z,97.11
2018-08-24T23:41:03.579Z,98.33
2018-08-24T23:43:38.404Z,97.09
2018-08-24T23:46:11.723Z,96.44
2018-08-24T23:48:45.142Z,96.46
2018-08-24T23:51:18.152Z,94.91
2018-08-24T23:53:53.265Z,95.14
2018-08-24T23:59:03.063Z,95.41
